createdAt,value
2023-05-08T00:00:14.312Z,98.0408
2023-05-08T00:01:14.339Z,97.9605
2023-05-08T00:02:14.974Z,97.9062
2023-05-08T00:03:15.472Z,97.9261
2023-05-08T00:04:16.506Z,97.9718
2023-05-08T00:06:17.484Z,98.0642
2023-05-08T00:07:18.249Z,98.0877
2023-05-08T00:08:19.736Z,98.1137
2023-05-08T00:09:20.251Z,98.0335
2023-05-08T00:10:20.982Z,97.8917
2023-05-08T00:11:22.212Z,97.8552
2023-05-08T00:16:05.150Z,97.9061
2023-05-08T00:17:05.309Z,97.8905
2023-05-08T00:18:06.824Z,97.8597
2023-05-08T00:19:07.911Z,97.8552
2023-05-08T00:20:09.036Z,97.8723
2023-05-08T00:21:09.164Z,97.9037
2023-05-08T00:22:09.886Z,97.8513
2023-05-08T00:23:10.998Z,97.7465
2023-05-08T00:24:12.323Z,97.6214
2023-05-08T00:25:12.578Z,97.4664
2023-05-08T00:26:13.711Z,97.4501
2023-05-08T00:27:14.239Z,97.5007
2023-05-08T00:28:15.135Z,97.6439
2023-05-08T00:29:15.195Z,97.7535
2023-05-08T00:30:16.907Z,97.8258
2023-05-08T00:31:16.634Z,97.9025
2023-05-08T00:32:16.965Z,97.9637
2023-05-08T00:33:18.909Z,98.0043
2023-05-08T00:36:43.723Z,98.1407
2023-05-08T00:37:43.811Z,98.1619
2023-05-08T00:38:44.649Z,98.1985
2023-05-08T00:39:45.484Z,98.2502
2023-05-08T00:40:46.168Z,98.2876
2023-05-08T00:41:47.112Z,98.3095
2023-05-08T00:42:48.228Z,98.3212
2023-05-08T00:43:49.022Z,98.3374
2023-05-08T00:44:50.799Z,98.3533
2023-05-08T00:45:51.731Z,98.3824
2023-05-08T00:46:52.708Z,98.4131
2023-05-08T00:47:53.710Z,98.4539
2023-05-08T00:48:54.390Z,98.4825
2023-05-08T00:49:56.387Z,98.5224
2023-05-08T00:51:01.915Z,98.5551
2023-05-08T00:51:59.208Z,98.5904
2023-05-08T00:53:00.021Z,98.6232
2023-05-08T00:54:01.225Z,98.6429
2023-05-08T00:55:02.414Z,98.6692
2023-05-08T00:56:03.751Z,98.6986
2023-05-08T00:57:05.133Z,98.7148
2023-05-08T00:58:06.000Z,98.7207
2023-05-08T00:59:07.289Z,98.7353
2023-05-08T01:00:08.222Z,98.7410
2023-05-08T01:01:09.574Z,98.7425
2023-05-08T01:02:11.344Z,98.7576
2023-05-08T01:04:12.747Z,98.7921
2023-05-08T01:05:12.998Z,98.8235
2023-05-08T01:08:03.853Z,98.8778
2023-05-08T01:09:04.477Z,98.8999
2023-05-08T01:10:04.561Z,98.9330
2023-05-08T01:11:06.145Z,98.9474
2023-05-08T01:12:06.110Z,98.9612
2023-05-08T01:13:06.213Z,98.9720
2023-05-08T01:14:06.814Z,98.9775
2023-05-08T01:15:08.435Z,98.9898
2023-05-08T01:16:09.473Z,98.9919
2023-05-08T01:17:09.826Z,98.9858
2023-05-08T01:18:09.847Z,98.9972
2023-05-08T01:19:10.870Z,99.0071
2023-05-08T01:20:12.159Z,99.0226
2023-05-08T01:21:12.213Z,99.0198
2023-05-08T01:22:12.641Z,99.0331
2023-05-08T01:23:14.132Z,99.0317
2023-05-08T01:24:15.012Z,99.0420
2023-05-08T01:25:16.011Z,99.0518
2023-05-08T01:26:16.391Z,99.0472
2023-05-08T01:27:17.393Z,99.0444
2023-05-08T01:28:17.515Z,99.0398
2023-05-08T01:29:18.989Z,99.0298
2023-05-08T01:30:19.133Z,99.0304
2023-05-08T01:32:19.057Z,99.0321
2023-05-08T01:33:20.486Z,99.0300
2023-05-08T01:36:21.619Z,99.0019
2023-05-08T01:37:22.282Z,99.0075
2023-05-08T01:38:22.631Z,99.0210
2023-05-08T01:39:23.549Z,99.0366
2023-05-08T01:40:24.098Z,99.0519
2023-05-08T01:41:25.608Z,99.0528
2023-05-08T01:42:26.365Z,99.0390
2023-05-08T01:43:27.434Z,99.0277
2023-05-08T01:44:28.507Z,99.0408
2023-05-08T01:45:29.588Z,99.0455
2023-05-08T01:46:30.702Z,99.0529
2023-05-08T01:51:02.068Z,99.0327
2023-05-08T01:52:02.103Z,99.0408
2023-05-08T01:53:03.190Z,99.0473
2023-05-08T01:55:04.653Z,99.0721
2023-05-08T01:56:04.738Z,99.0951
2023-05-08T01:57:06.068Z,99.1152
2023-05-08T01:58:06.789Z,99.1343
2023-05-08T01:59:06.793Z,99.1494
2023-05-08T02:00:07.974Z,99.1637
2023-05-08T02:02:08.391Z,99.1773
2023-05-08T02:03:08.762Z,99.1821
2023-05-08T02:04:10.331Z,99.1773
2023-05-08T02:06:10.886Z,99.1738
2023-05-08T02:07:11.370Z,99.1733
2023-05-08T02:08:12.668Z,99.1856
2023-05-08T02:09:13.177Z,99.1947
2023-05-08T02:10:14.362Z,99.2037
2023-05-08T02:12:14.492Z,99.1986
2023-05-08T02:13:16.308Z,99.2005
2023-05-08T02:14:16.963Z,99.2069
2023-05-08T02:15:18.312Z,99.2097
2023-05-08T02:16:19.426Z,99.2164
2023-05-08T02:25:29.223Z,99.2989
2023-05-08T02:26:29.866Z,99.3166
2023-05-08T02:27:30.369Z,99.3097
2023-05-08T02:28:31.273Z,99.3044
2023-05-08T02:29:32.291Z,99.3047
2023-05-08T02:30:32.579Z,99.3146
2023-05-08T02:31:33.690Z,99.3077
2023-05-08T02:32:34.477Z,99.3059
2023-05-08T02:33:35.140Z,99.3189
2023-05-08T02:34:35.223Z,99.3222
2023-05-08T02:35:35.171Z,99.3236
2023-05-08T02:36:35.228Z,99.3267
2023-05-08T02:37:36.139Z,99.3086
2023-05-08T02:38:38.683Z,99.2592
2023-05-08T02:39:38.625Z,99.2465
2023-05-08T02:40:39.842Z,99.2559
2023-05-08T02:41:40.094Z,99.2552
2023-05-08T02:42:41.294Z,99.2623
2023-05-08T02:43:43.443Z,99.2620
2023-05-08T02:44:43.616Z,99.2759
2023-05-08T02:45:44.005Z,99.2755
2023-05-08T02:46:45.254Z,99.2846
2023-05-08T02:47:44.869Z,99.2889
2023-05-08T02:48:45.407Z,99.2885
2023-05-08T02:49:46.257Z,99.2915
2023-05-08T02:50:47.894Z,99.2898
2023-05-08T02:51:48.649Z,99.2936
2023-05-08T02:52:48.295Z,99.2993
2023-05-08T02:53:49.569Z,99.3039
2023-05-08T02:54:49.846Z,99.3119
2023-05-08T02:55:50.090Z,99.3116
2023-05-08T02:56:50.359Z,99.3038
2023-05-08T02:57:51.005Z,99.3035
2023-05-08T02:58:51.917Z,99.2987
2023-05-08T02:59:52.680Z,99.3059
2023-05-08T03:00:52.719Z,99.3209
2023-05-08T03:01:53.836Z,99.3332
2023-05-08T03:02:53.971Z,99.3496
2023-05-08T03:03:55.054Z,99.3635
2023-05-08T03:04:55.984Z,99.3739
2023-05-08T03:05:56.737Z,99.3711
2023-05-08T03:06:57.400Z,99.3718
2023-05-08T03:07:57.951Z,99.3607
2023-05-08T03:08:58.009Z,99.3428
2023-05-08T03:09:58.931Z,99.3121
2023-05-08T03:10:59.358Z,99.3034
2023-05-08T03:11:59.574Z,99.2866
2023-05-08T03:13:00.292Z,99.2869
2023-05-08T03:14:01.274Z,99.2847
2023-05-08T03:19:04.661Z,99.2346
2023-05-08T03:20:04.836Z,99.2033
2023-05-08T03:21:04.894Z,99.1705
2023-05-08T03:22:06.008Z,99.1472
2023-05-08T03:23:07.490Z,99.1234
2023-05-08T03:24:07.849Z,99.1194
2023-05-08T03:25:08.272Z,99.1207
2023-05-08T03:26:09.768Z,99.1286
2023-05-08T03:29:10.790Z,99.1562
2023-05-08T03:33:12.765Z,99.2299
2023-05-08T03:34:13.530Z,99.2459
2023-05-08T03:35:14.715Z,99.2588
2023-05-08T03:36:15.597Z,99.2639
2023-05-08T03:37:16.104Z,99.2650
2023-05-08T03:38:17.433Z,99.2772
2023-05-08T03:39:17.857Z,99.2556
2023-05-08T03:40:17.910Z,99.2500
2023-05-08T03:41:19.118Z,99.2349
2023-05-08T03:42:20.254Z,99.2162
2023-05-08T03:43:21.019Z,99.2047
2023-05-08T03:44:21.035Z,99.1893
2023-05-08T03:45:22.100Z,99.1705
2023-05-08T03:46:23.567Z,99.1635
2023-05-08T03:47:23.780Z,99.1650
2023-05-08T03:48:24.123Z,99.1508
2023-05-08T03:49:25.990Z,99.1399
2023-05-08T03:50:26.811Z,99.1417
2023-05-08T03:51:29.414Z,99.1490
2023-05-08T03:54:30.712Z,99.1978
2023-05-08T03:55:31.942Z,99.2102
2023-05-08T03:56:32.671Z,99.2141
2023-05-08T03:57:32.745Z,99.2206
2023-05-08T03:58:33.623Z,99.2192
2023-05-08T03:59:33.761Z,99.2218
2023-05-08T04:00:34.570Z,99.2308
2023-05-08T04:01:35.725Z,99.2462
2023-05-08T04:02:36.708Z,99.2433
2023-05-08T04:03:36.789Z,99.2446
2023-05-08T04:04:38.076Z,99.2493
2023-05-08T04:05:38.279Z,99.2605
2023-05-08T04:06:49.356Z,99.2713
2023-05-08T04:07:43.330Z,99.2638
2023-05-08T04:09:43.083Z,99.2393
2023-05-08T04:10:44.664Z,99.2313
2023-05-08T04:12:44.413Z,99.1516
2023-05-08T04:13:45.905Z,99.1324
2023-05-08T04:14:47.007Z,99.0993
2023-05-08T04:15:48.049Z,99.0602
2023-05-08T04:16:50.156Z,99.0431
2023-05-08T04:17:50.199Z,99.0476
2023-05-08T04:18:50.564Z,99.0643
2023-05-08T04:19:51.257Z,99.0800
2023-05-08T04:21:51.643Z,99.1136
2023-05-08T04:23:52.581Z,99.1187
2023-05-08T04:24:52.830Z,99.1211
2023-05-08T04:25:53.865Z,99.1395
2023-05-08T04:27:54.134Z,99.1635
2023-05-08T04:29:55.512Z,99.1680
2023-05-08T04:30:55.940Z,99.1424
2023-05-08T04:31:56.794Z,99.1343
2023-05-08T04:32:57.761Z,99.1016
2023-05-08T04:33:57.830Z,99.0738
2023-05-08T04:34:58.767Z,99.0711
2023-05-08T04:37:00.272Z,99.0767
2023-05-08T04:39:01.081Z,99.0480
2023-05-08T04:41:01.242Z,98.9685
2023-05-08T04:43:02.139Z,98.9784
2023-05-08T04:44:02.888Z,99.0002
2023-05-08T04:45:05.278Z,99.0253
2023-05-08T04:46:06.933Z,99.0330
2023-05-08T04:48:07.766Z,99.0661
2023-05-08T04:49:09.453Z,99.0401
2023-05-08T04:50:10.049Z,99.0416
2023-05-08T04:51:10.228Z,99.0522
2023-05-08T04:52:11.487Z,99.0495
2023-05-08T04:53:12.432Z,99.0524
2023-05-08T04:54:12.685Z,99.0700
2023-05-08T04:55:13.963Z,99.0893
2023-05-08T04:57:13.879Z,99.1170
2023-05-08T04:59:16.060Z,99.1134
2023-05-08T05:00:15.456Z,99.1230
2023-05-08T05:01:15.926Z,99.1258
2023-05-08T05:02:17.095Z,99.1015
2023-05-08T05:03:17.651Z,99.1092
2023-05-08T05:04:18.948Z,99.1047
2023-05-08T05:05:21.007Z,99.1056
2023-05-08T05:06:28.524Z,99.0933
2023-05-08T05:07:22.440Z,99.0633
2023-05-08T05:09:13.086Z,99.0156
2023-05-08T05:11:14.521Z,99.0017
2023-05-08T05:13:15.221Z,98.9917
2023-05-08T05:15:15.799Z,98.9924
2023-05-08T05:17:16.906Z,98.9075
2023-05-08T05:19:17.834Z,98.8350
2023-05-08T05:20:18.769Z,98.8391
2023-05-08T05:21:19.911Z,98.8544
2023-05-08T05:22:20.576Z,98.8659
2023-05-08T05:23:21.850Z,98.8283
2023-05-08T05:25:22.036Z,98.8327
2023-05-08T05:26:22.397Z,98.8305
2023-05-08T05:27:23.503Z,98.8373
2023-05-08T05:28:23.684Z,98.8307
2023-05-08T05:29:24.820Z,98.8344
2023-05-08T05:30:25.465Z,98.8499
2023-05-08T05:31:27.418Z,98.8279
2023-05-08T05:32:27.406Z,98.7904
2023-05-08T05:33:28.315Z,98.7884
2023-05-08T05:34:29.664Z,98.7802
2023-05-08T05:36:30.530Z,98.7294
2023-05-08T05:38:30.389Z,98.7199
2023-05-08T05:39:30.885Z,98.6828
2023-05-08T05:40:32.230Z,98.6485
2023-05-08T05:42:33.051Z,98.6902
2023-05-08T05:44:33.312Z,98.7557
2023-05-08T05:45:36.690Z,98.7852
2023-05-08T05:46:37.403Z,98.7868
2023-05-08T05:47:38.515Z,98.7639
2023-05-08T05:48:38.746Z,98.7462
2023-05-08T05:49:40.871Z,98.7443
2023-05-08T05:51:41.278Z,98.7748
2023-05-08T05:52:42.943Z,98.7719
2023-05-08T05:53:43.803Z,98.7831
2023-05-08T05:56:45.774Z,98.8479
2023-05-08T05:59:47.109Z,98.9067
2023-05-08T06:00:47.732Z,98.9142
2023-05-08T06:01:47.804Z,98.9080
2023-05-08T06:02:49.041Z,98.8956
2023-05-08T06:03:49.485Z,98.8939
2023-05-08T06:04:50.317Z,98.8974
2023-05-08T06:05:50.366Z,98.8842
2023-05-08T06:06:51.396Z,98.8611
2023-05-08T06:07:51.978Z,98.8670
2023-05-08T06:08:53.440Z,98.8704
2023-05-08T06:09:53.702Z,98.8638
2023-05-08T06:10:54.550Z,98.8682
2023-05-08T06:11:55.529Z,98.8593
2023-05-08T06:12:55.979Z,98.7961
2023-05-08T06:13:57.094Z,98.7676
2023-05-08T06:14:57.727Z,98.7560
2023-05-08T06:16:02.711Z,98.7528
2023-05-08T06:16:58.968Z,98.7836
2023-05-08T06:17:59.759Z,98.7996
2023-05-08T06:19:00.511Z,98.8116
2023-05-08T06:20:00.824Z,98.7997
2023-05-08T06:21:01.917Z,98.8018
2023-05-08T06:22:03.728Z,98.8011
2023-05-08T06:23:04.308Z,98.7445
2023-05-08T06:24:04.948Z,98.6769
2023-05-08T06:25:06.130Z,98.6804
2023-05-08T06:26:07.298Z,98.7101
2023-05-08T06:27:07.664Z,98.7398
2023-05-08T06:28:08.012Z,98.7562
2023-05-08T06:29:08.244Z,98.7700
2023-05-08T06:30:08.425Z,98.7898
2023-05-08T06:31:09.009Z,98.7832
2023-05-08T06:32:09.554Z,98.7775
2023-05-08T06:33:10.291Z,98.7674
2023-05-08T06:34:10.880Z,98.7758
2023-05-08T06:35:11.089Z,98.7838
2023-05-08T06:36:11.177Z,98.7799
2023-05-08T06:37:11.358Z,98.7758
2023-05-08T06:38:11.483Z,98.7910
2023-05-08T06:39:11.726Z,98.7879
2023-05-08T06:40:13.084Z,98.7733
2023-05-08T06:41:15.184Z,98.7602
2023-05-08T06:42:14.122Z,98.7281
2023-05-08T06:43:14.423Z,98.6883
2023-05-08T06:44:14.556Z,98.6867
2023-05-08T06:45:16.100Z,98.6870
2023-05-08T06:46:15.826Z,98.6987
2023-05-08T06:47:16.507Z,98.7049
2023-05-08T06:48:17.093Z,98.7119
2023-05-08T06:49:17.556Z,98.7023
2023-05-08T06:50:17.861Z,98.7299
2023-05-08T06:51:18.171Z,98.7474
2023-05-08T06:52:18.361Z,98.7558
2023-05-08T06:53:18.470Z,98.7635
2023-05-08T06:54:18.552Z,98.7794
2023-05-08T06:55:19.502Z,98.7770
2023-05-08T06:56:19.697Z,98.7710
2023-05-08T06:57:20.089Z,98.7653
2023-05-08T06:58:20.295Z,98.7679
2023-05-08T06:59:21.099Z,98.7856
2023-05-08T07:00:21.511Z,98.7986
2023-05-08T07:01:21.783Z,98.7802
2023-05-08T07:02:22.590Z,98.7320
2023-05-08T07:03:23.210Z,98.6927
2023-05-08T07:04:23.571Z,98.6276
2023-05-08T07:05:24.728Z,98.6103
2023-05-08T07:06:24.908Z,98.5456
2023-05-08T07:07:25.283Z,98.4971
2023-05-08T07:08:25.985Z,98.4043
2023-05-08T07:09:26.428Z,98.3246
2023-05-08T07:10:26.811Z,98.2069
2023-05-08T07:11:26.927Z,98.0951
2023-05-08T07:12:27.249Z,98.0136
2023-05-08T07:13:28.249Z,98.0223
2023-05-08T07:14:28.758Z,97.9054
2023-05-08T07:15:30.142Z,97.7007
2023-05-08T07:16:31.280Z,97.5717
2023-05-08T07:17:32.026Z,97.4750
2023-05-08T07:18:32.329Z,97.5561
2023-05-08T07:19:33.191Z,97.6846
2023-05-08T07:20:33.753Z,97.5087
2023-05-08T07:21:34.110Z,96.9438
2023-05-08T07:22:34.441Z,96.7282
2023-05-08T07:23:34.693Z,96.9692
2023-05-08T07:24:34.781Z,97.0335
2023-05-08T07:25:35.002Z,97.0261
2023-05-08T07:26:35.014Z,97.0161
2023-05-08T07:27:35.202Z,97.0201
2023-05-08T07:28:35.336Z,97.0239
2023-05-08T07:29:35.717Z,97.1331
2023-05-08T07:30:35.797Z,97.1347
2023-05-08T07:31:36.255Z,97.0386
2023-05-08T07:32:36.759Z,96.8297
2023-05-08T07:33:37.108Z,96.9388
2023-05-08T07:34:37.397Z,97.0344
2023-05-08T07:35:38.678Z,96.9544
2023-05-08T07:36:38.930Z,97.0722
2023-05-08T07:37:55.599Z,97.0502
2023-05-08T07:39:18.845Z,97.0608
2023-05-08T07:40:11.338Z,97.1059
2023-05-08T07:41:11.519Z,97.0802
2023-05-08T07:42:12.671Z,97.0685
2023-05-08T07:43:13.225Z,96.8536
2023-05-08T07:44:13.674Z,96.8161
2023-05-08T07:45:14.613Z,96.8355
2023-05-08T07:46:14.515Z,96.7869
2023-05-08T07:47:15.613Z,96.7757
2023-05-08T07:48:21.125Z,96.7703
2023-05-08T07:49:20.947Z,96.7830
2023-05-08T07:51:20.062Z,96.6989
2023-05-08T07:52:20.973Z,96.7075
2023-05-08T07:53:22.809Z,96.6583
2023-05-08T07:54:26.718Z,96.7531
2023-05-08T07:56:25.049Z,95.7861
2023-05-08T07:57:24.952Z,95.3840
2023-05-08T07:58:25.871Z,95.5601
2023-05-08T07:59:27.264Z,95.5978
2023-05-08T08:00:28.316Z,95.7614
2023-05-08T08:02:29.739Z,96.1181
2023-05-08T08:04:31.266Z,95.3945
2023-05-08T08:05:32.657Z,95.0093
2023-05-08T08:06:32.596Z,95.0075
2023-05-08T08:08:34.097Z,93.8539
2023-05-08T08:09:34.148Z,94.2253
2023-05-08T08:10:34.119Z,94.6075
2023-05-08T08:13:37.299Z,94.7303
2023-05-08T08:15:37.331Z,94.0366
2023-05-08T08:16:37.778Z,93.8809
2023-05-08T08:17:38.118Z,93.6585
2023-05-08T08:18:39.442Z,93.8978
2023-05-08T08:19:40.049Z,93.2206
2023-05-08T08:20:41.010Z,91.7633
2023-05-08T08:21:41.081Z,92.0654
2023-05-08T08:22:41.424Z,91.4681
2023-05-08T08:23:41.877Z,91.5185
2023-05-08T08:24:42.252Z,91.6555
2023-05-08T08:25:43.167Z,90.9075
2023-05-08T08:26:43.569Z,90.0259
2023-05-08T08:27:43.819Z,89.6735
2023-05-08T08:28:44.219Z,89.7081
2023-05-08T08:29:44.673Z,89.6833
2023-05-08T08:30:44.909Z,90.4909
2023-05-08T08:31:45.623Z,91.1980
2023-05-08T08:32:46.798Z,92.0535
2023-05-08T08:33:47.708Z,90.8790
2023-05-08T08:34:48.137Z,89.4983
2023-05-08T08:35:48.616Z,88.2959
2023-05-08T08:36:48.909Z,88.7181
2023-05-08T08:37:49.115Z,88.6134
2023-05-08T08:38:50.225Z,88.3741
2023-05-08T08:39:50.195Z,87.8905
2023-05-08T08:40:50.575Z,87.5315
2023-05-08T08:41:50.810Z,88.0074
2023-05-08T08:42:51.116Z,88.2565
2023-05-08T08:43:51.336Z,88.2968
2023-05-08T08:44:51.886Z,87.9957
2023-05-08T08:45:52.092Z,88.1692
2023-05-08T08:46:52.364Z,88.5941
2023-05-08T08:47:53.428Z,88.3599
2023-05-08T08:48:53.678Z,89.3686
2023-05-08T08:49:54.054Z,86.3971
2023-05-08T08:50:55.310Z,86.9024
2023-05-08T08:51:55.611Z,86.7983
2023-05-08T08:52:55.968Z,87.9779
2023-05-08T08:53:56.327Z,87.1770
2023-05-08T08:54:56.618Z,86.8507
2023-05-08T08:55:57.083Z,86.9872
2023-05-08T08:56:57.605Z,86.8869
2023-05-08T08:57:57.766Z,87.6193
2023-05-08T08:58:58.224Z,86.3906
2023-05-08T08:59:58.831Z,85.8655
2023-05-08T09:00:59.478Z,86.7702
2023-05-08T09:02:00.236Z,85.6782
2023-05-08T09:03:01.391Z,86.3294
2023-05-08T09:04:01.359Z,85.7893
2023-05-08T09:05:02.123Z,86.9566
2023-05-08T09:06:03.238Z,86.2937
2023-05-08T09:07:03.910Z,85.8429
2023-05-08T09:08:04.108Z,85.9384
2023-05-08T09:09:04.543Z,85.4255
2023-05-08T09:10:04.864Z,86.5624
2023-05-08T09:11:05.153Z,86.0984
2023-05-08T09:12:05.790Z,85.8208
2023-05-08T09:13:06.135Z,85.8454
2023-05-08T09:14:07.361Z,86.5287
2023-05-08T09:15:07.856Z,86.5043
2023-05-08T09:16:09.466Z,87.3951
2023-05-08T09:17:10.717Z,86.2712
2023-05-08T09:18:11.282Z,84.9186
2023-05-08T09:19:11.784Z,84.9674
2023-05-08T09:20:12.167Z,86.2103
2023-05-08T09:21:12.333Z,84.9273
2023-05-08T09:22:12.589Z,85.2539
2023-05-08T09:23:12.912Z,85.6835
2023-05-08T09:24:13.386Z,84.8238
2023-05-08T09:25:14.034Z,85.0988
2023-05-08T09:26:14.302Z,84.9333
2023-05-08T09:27:14.926Z,84.5131
2023-05-08T09:28:15.368Z,84.6490
2023-05-08T09:29:15.802Z,84.9610
2023-05-08T09:30:16.716Z,84.3061
2023-05-08T09:31:17.000Z,84.0180
2023-05-08T09:32:17.422Z,84.0287
2023-05-08T09:33:18.069Z,84.5586
2023-05-08T09:34:19.225Z,84.7752
2023-05-08T09:35:19.421Z,85.2725
2023-05-08T09:36:19.926Z,84.1802
2023-05-08T09:37:20.282Z,82.9491
2023-05-08T09:38:20.464Z,84.0959
2023-05-08T09:39:20.861Z,83.8453
2023-05-08T09:40:21.269Z,84.0159
2023-05-08T09:41:22.013Z,84.7924
2023-05-08T09:42:22.273Z,84.9439
2023-05-08T09:43:22.779Z,85.0434
2023-05-08T09:44:23.251Z,84.9156
2023-05-08T09:45:24.275Z,84.1240
2023-05-08T09:46:24.857Z,84.5429
2023-05-08T09:47:25.897Z,85.4073
2023-05-08T09:48:26.530Z,85.6405
2023-05-08T09:49:26.905Z,85.8258
2023-05-08T09:50:28.116Z,86.4790
2023-05-08T09:51:28.755Z,86.7880
2023-05-08T09:52:29.144Z,86.0777
2023-05-08T09:53:29.624Z,86.7224
2023-05-08T09:54:30.016Z,86.8167
2023-05-08T09:55:30.295Z,86.7240
2023-05-08T09:56:30.748Z,86.9423
2023-05-08T09:57:31.161Z,87.1618
2023-05-08T09:58:31.963Z,87.0262
2023-05-08T09:59:34.250Z,86.5823
2023-05-08T10:00:32.756Z,85.4137
2023-05-08T10:01:33.338Z,85.7308
2023-05-08T10:02:33.974Z,85.6532
2023-05-08T10:03:35.101Z,85.0368
2023-05-08T10:04:36.010Z,84.6677
2023-05-08T10:05:36.574Z,84.2228
2023-05-08T10:06:36.848Z,84.3518
2023-05-08T10:07:37.307Z,82.6985
2023-05-08T10:08:37.786Z,82.5957
2023-05-08T10:09:49.714Z,82.7486
2023-05-08T10:10:39.331Z,83.9132
2023-05-08T10:11:39.794Z,83.6955
2023-05-08T10:12:40.038Z,83.0614
2023-05-08T10:13:40.996Z,82.0493
2023-05-08T10:14:43.123Z,82.0572
2023-05-08T10:15:43.078Z,82.2326
2023-05-08T10:16:43.907Z,82.2395
2023-05-08T10:17:44.824Z,83.0138
2023-05-08T10:18:45.187Z,82.4649
2023-05-08T10:19:45.725Z,81.8465
2023-05-08T10:20:46.714Z,82.2689
2023-05-08T10:21:47.193Z,81.9140
2023-05-08T10:22:47.427Z,81.6275
2023-05-08T10:23:47.806Z,82.6369
2023-05-08T10:24:48.129Z,81.9224
2023-05-08T10:25:48.606Z,82.0593
2023-05-08T10:27:05.109Z,83.3413
2023-05-08T10:27:51.138Z,85.1797
2023-05-08T10:28:51.450Z,83.5328
2023-05-08T10:29:51.938Z,83.9735
2023-05-08T10:30:52.376Z,83.8347
2023-05-08T10:31:53.249Z,84.1603
2023-05-08T10:32:53.887Z,83.7742
2023-05-08T10:33:54.463Z,84.3062
2023-05-08T10:34:54.594Z,84.3076
2023-05-08T10:35:54.905Z,84.0984
2023-05-08T10:36:55.890Z,82.8275
2023-05-08T10:37:56.412Z,82.5978
2023-05-08T10:38:56.879Z,81.7608
2023-05-08T10:39:57.181Z,82.5697
2023-05-08T10:40:57.785Z,82.3722
2023-05-08T10:41:58.316Z,82.1556
2023-05-08T10:42:58.728Z,81.9219
2023-05-08T10:44:01.072Z,82.2795
2023-05-08T10:45:00.047Z,82.1447
2023-05-08T10:46:00.712Z,82.2829
2023-05-08T10:47:01.387Z,81.5759
2023-05-08T10:48:02.083Z,81.0697
2023-05-08T10:49:02.745Z,80.4242
2023-05-08T10:50:02.943Z,79.9071
2023-05-08T10:51:04.078Z,78.9949
2023-05-08T10:52:04.295Z,78.4336
2023-05-08T10:53:04.856Z,76.9657
2023-05-08T10:54:05.311Z,77.3427
2023-05-08T10:55:05.976Z,77.5525
2023-05-08T10:56:06.164Z,77.8303
2023-05-08T10:58:26.735Z,76.9753
2023-05-08T10:59:27.649Z,75.0080
2023-05-08T11:00:28.400Z,75.7918
2023-05-08T11:01:28.669Z,74.7739
2023-05-08T11:02:29.710Z,75.7067
2023-05-08T11:03:32.627Z,76.4296
2023-05-08T11:04:31.487Z,76.4841
2023-05-08T11:05:32.157Z,77.2464
2023-05-08T11:06:32.626Z,77.8225
2023-05-08T11:07:33.299Z,78.1249
2023-05-08T11:08:33.825Z,78.4584
2023-05-08T11:09:34.179Z,78.7782
2023-05-08T11:10:34.944Z,78.1557
2023-05-08T11:11:35.611Z,77.8341
2023-05-08T11:12:36.177Z,77.2101
2023-05-08T11:13:37.138Z,76.2338
2023-05-08T11:14:37.536Z,76.0479
2023-05-08T11:15:38.120Z,76.8349
2023-05-08T11:16:39.130Z,76.9286
2023-05-08T11:17:40.321Z,77.1146
2023-05-08T11:18:49.549Z,76.4348
2023-05-08T11:19:46.403Z,77.3334
2023-05-08T11:20:47.449Z,76.5086
2023-05-08T11:21:48.006Z,76.7640
2023-05-08T11:22:48.585Z,77.7559
2023-05-08T11:23:48.814Z,78.1392
2023-05-08T11:24:49.342Z,78.4778
2023-05-08T11:25:49.878Z,78.7602
2023-05-08T11:26:50.434Z,79.5247
2023-05-08T11:27:50.969Z,79.4957
2023-05-08T11:28:51.539Z,79.8827
2023-05-08T11:29:52.193Z,78.7401
2023-05-08T11:30:52.982Z,78.0977
2023-05-08T11:31:54.107Z,78.8157
2023-05-08T11:32:54.970Z,79.0388
2023-05-08T11:33:55.584Z,79.3975
2023-05-08T11:34:56.923Z,80.7956
2023-05-08T11:35:57.582Z,79.8942
2023-05-08T11:36:58.182Z,79.9056
2023-05-08T11:37:58.609Z,80.1335
2023-05-08T11:38:59.229Z,80.3086
2023-05-08T11:39:59.862Z,79.5244
2023-05-08T11:41:00.563Z,78.5972
2023-05-08T11:42:00.972Z,78.6148
2023-05-08T11:43:01.481Z,78.9374
2023-05-08T11:44:02.042Z,79.2769
2023-05-08T11:45:02.922Z,79.6202
2023-05-08T11:46:03.515Z,78.7702
2023-05-08T11:47:04.614Z,76.1693
2023-05-08T11:48:05.617Z,76.8162
2023-05-08T11:49:06.173Z,78.0541
2023-05-08T11:50:06.376Z,77.6083
2023-05-08T11:51:06.986Z,75.5364
2023-05-08T11:52:07.562Z,75.8364
2023-05-08T11:53:08.162Z,76.9312
2023-05-08T11:54:08.540Z,77.7924
2023-05-08T11:55:08.499Z,77.4409
2023-05-08T11:56:09.097Z,78.2425
2023-05-08T11:57:09.595Z,78.2416
2023-05-08T11:58:09.871Z,77.5728
2023-05-08T11:59:10.612Z,77.4051
2023-05-08T12:00:11.617Z,75.9506
2023-05-08T12:01:11.701Z,76.0682
2023-05-08T12:02:12.115Z,76.3887
2023-05-08T12:03:12.738Z,76.4987
2023-05-08T12:04:13.593Z,76.6726
2023-05-08T12:05:14.202Z,76.5266
2023-05-08T12:06:14.991Z,76.7843
2023-05-08T12:07:15.622Z,76.3694
2023-05-08T12:08:16.192Z,76.4566
2023-05-08T12:09:17.207Z,74.7077
2023-05-08T12:10:18.156Z,73.9887
2023-05-08T12:11:17.483Z,75.1062
2023-05-08T12:12:18.804Z,75.5637
2023-05-08T12:13:20.196Z,74.9133
2023-05-08T12:14:20.383Z,75.1407
2023-05-08T12:15:21.465Z,74.9294
2023-05-08T12:16:23.032Z,75.0044
2023-05-08T12:17:23.409Z,74.3020
2023-05-08T12:18:23.805Z,73.8002
2023-05-08T12:19:24.623Z,73.4911
2023-05-08T12:20:25.294Z,73.7102
2023-05-08T12:21:26.521Z,73.7877
2023-05-08T12:22:27.596Z,73.1213
2023-05-08T12:23:28.842Z,70.7240
2023-05-08T12:24:29.935Z,67.5056
2023-05-08T12:25:30.420Z,66.6690
2023-05-08T12:26:31.690Z,68.2074
2023-05-08T12:27:32.762Z,68.1236
2023-05-08T12:28:33.980Z,68.2791
2023-05-08T12:29:34.921Z,68.6440
2023-05-08T12:33:36.159Z,66.9287
2023-05-08T12:34:37.438Z,66.2936
2023-05-08T12:35:38.522Z,62.9203
2023-05-08T12:36:39.683Z,63.5648
2023-05-08T12:37:40.859Z,61.1481
2023-05-08T12:38:41.967Z,60.6481
2023-05-08T12:39:43.157Z,63.1835
2023-05-08T12:40:43.409Z,65.1605
2023-05-08T12:41:44.668Z,65.2687
2023-05-08T12:42:44.705Z,67.2882
2023-05-08T12:43:45.936Z,68.7189
2023-05-08T12:44:47.092Z,70.5179
2023-05-08T12:45:48.262Z,71.1861
2023-05-08T13:03:02.634Z,82.0062
2023-05-08T13:04:03.681Z,82.6263
2023-05-08T13:05:03.670Z,83.8467
2023-05-08T13:06:04.844Z,85.0046
2023-05-08T13:07:06.141Z,85.0462
2023-05-08T13:08:07.353Z,86.1321
2023-05-08T13:09:08.586Z,86.6212
2023-05-08T13:10:09.974Z,86.7307
2023-05-08T13:11:10.160Z,87.2773
2023-05-08T13:12:11.429Z,87.5546
2023-05-08T13:13:11.444Z,87.7953
2023-05-08T13:14:11.497Z,88.6916
2023-05-08T13:15:11.689Z,89.0911
2023-05-08T13:16:11.890Z,89.4873
2023-05-08T13:17:12.113Z,89.7539
2023-05-08T13:18:13.736Z,89.6265
2023-05-08T13:19:14.027Z,89.9195
2023-05-08T13:20:14.198Z,89.8452
2023-05-08T13:21:14.435Z,89.8251
2023-05-08T13:22:14.381Z,89.5670
2023-05-08T13:23:15.670Z,90.1311
2023-05-08T13:24:16.990Z,90.2477
2023-05-08T13:25:18.249Z,90.3757
2023-05-08T13:26:19.563Z,89.8733
2023-05-08T13:27:20.701Z,89.8815
2023-05-08T13:28:22.212Z,89.2936
2023-05-08T13:29:23.459Z,89.6614
2023-05-08T13:30:23.598Z,88.0991
2023-05-08T13:31:23.604Z,88.2979
2023-05-08T13:32:23.924Z,89.5013
2023-05-08T13:33:24.042Z,89.7321
2023-05-08T13:34:25.214Z,89.8828
2023-05-08T13:35:26.328Z,90.2574
2023-05-08T13:36:27.538Z,90.4249
2023-05-08T13:37:28.807Z,90.8128
2023-05-08T13:38:29.930Z,90.4489
2023-05-08T13:39:31.135Z,90.4848
2023-05-08T13:40:32.372Z,91.3633
2023-05-08T13:41:33.558Z,91.0760
2023-05-08T13:42:34.765Z,91.0488
2023-05-08T13:43:35.848Z,91.2917
2023-05-08T13:44:37.025Z,90.8861
2023-05-08T13:45:37.825Z,91.1023
2023-05-08T13:46:38.002Z,91.5771
2023-05-08T13:47:39.213Z,90.7769
2023-05-08T13:48:40.755Z,90.8992
2023-05-08T13:49:41.974Z,90.6934
2023-05-08T13:50:43.149Z,90.0031
2023-05-08T13:51:52.023Z,90.0570